Time;durP1;ratioP1;P1;durP2;ratioP2;P2;SDS_P1;SDS_P2;PMS_P1;PMS_P2;Temp;Humidity;BMP_temperature;BMP_pressure;BME280_temperature;BME280_humidity;BME280_pressure;Samples;Min_cycle;Max_cycle;Signal;HPM_P1;HPM_P2
2022/04/23 00:01:28;;;;;;;27.27;19.92;;;;;;;9.48;76.81;100385.41;5115775;28;20019;-54
2022/04/23 00:03:53;;;;;;;25.73;19.63;;;;;;;9.44;76.81;100381.63;5116358;28;20034;-54
2022/04/23 00:06:18;;;;;;;27.17;18.98;;;;;;;9.38;77.31;100375.41;5115292;28;20063;-53
2022/04/23 00:08:44;;;;;;;28.50;19.77;;;;;;;9.41;77.51;100385.84;5115306;28;20026;-55
2022/04/23 00:11:09;;;;;;;27.10;19.23;;;;;;;9.38;77.68;100378.16;5115923;28;20108;-54
2022/04/23 00:13:35;;;;;;;27.00;20.33;;;;;;;9.36;77.81;100384.00;5115432;28;20055;-53
2022/04/23 00:16:00;;;;;;;28.17;19.27;;;;;;;9.33;77.90;100381.06;5115738;28;20466;-53
2022/04/23 00:18:26;;;;;;;26.02;19.65;;;;;;;9.32;78.00;100382.97;5115604;28;20041;-56
2022/04/23 00:20:51;;;;;;;26.98;19.52;;;;;;;9.31;77.87;100380.53;5096905;28;20469;-54
2022/04/23 00:23:17;;;;;;;27.40;20.10;;;;;;;9.27;77.92;100388.63;5115480;28;20017;-53
2022/04/23 00:25:45;;;;;;;28.38;20.10;;;;;;;9.21;78.88;100381.56;5096533;28;20357;-51
2022/04/23 00:28:10;;;;;;;28.92;21.40;;;;;;;9.23;78.94;100384.03;5115146;28;20027;-53
2022/04/23 00:30:36;;;;;;;27.17;19.05;;;;;;;9.21;78.65;100385.16;5115358;28;20030;-54
2022/04/23 00:33:03;;;;;;;28.45;20.58;;;;;;;9.17;78.82;100381.34;5115484;28;20027;-55
2022/04/23 00:35:29;;;;;;;28.13;20.95;;;;;;;9.15;79.10;100375.34;5114825;28;20137;-52
2022/04/23 00:37:55;;;;;;;29.25;20.77;;;;;;;9.16;79.29;100381.69;5114445;28;20039;-52
2022/04/23 00:40:24;;;;;;;29.17;20.85;;;;;;;9.13;79.44;100374.84;5115006;28;20024;-53
2022/04/23 00:42:55;;;;;;;28.55;21.30;;;;;;;9.11;79.74;100382.59;5114879;28;20023;-54
2022/04/23 00:45:20;;;;;;;29.33;20.85;;;;;;;9.08;79.83;100382.41;5115852;28;20050;-53
2022/04/23 00:47:46;;;;;;;29.50;21.73;;;;;;;9.06;79.97;100379.97;5115032;28;20357;-55
2022/04/23 00:50:12;;;;;;;29.13;22.15;;;;;;;9.04;79.77;100382.19;5115254;28;20476;-54
2022/04/23 00:52:37;;;;;;;29.15;21.48;;;;;;;9.01;80.35;100391.09;5114538;28;20027;-52
2022/04/23 00:55:04;;;;;;;27.70;21.38;;;;;;;8.99;80.43;100394.16;5114646;28;20099;-53
2022/04/23 00:57:30;;;;;;;30.00;22.95;;;;;;;8.96;80.87;100377.41;5114569;28;20024;-49
2022/04/23 00:59:55;;;;;;;29.15;21.13;;;;;;;8.95;80.61;100386.81;5114853;28;20062;-51
2022/04/23 01:02:22;;;;;;;28.73;21.42;;;;;;;8.91;80.67;100375.56;5114806;28;20052;-51
2022/04/23 01:04:48;;;;;;;30.38;22.58;;;;;;;8.90;80.72;100388.53;5114679;28;20020;-51
2022/04/23 01:07:13;;;;;;;30.83;22.52;;;;;;;8.87;81.09;100382.81;5095822;28;20038;-53
2022/04/23 01:09:39;;;;;;;30.33;22.27;;;;;;;8.84;81.26;100386.16;5114812;28;20048;-54
2022/04/23 01:12:05;;;;;;;30.73;22.65;;;;;;;8.81;81.75;100393.13;5114356;28;20077;-53
2022/04/23 01:14:31;;;;;;;28.95;22.10;;;;;;;8.80;81.46;100383.19;5114340;28;20046;-53
2022/04/23 01:16:56;;;;;;;31.10;23.35;;;;;;;8.79;81.88;100397.31;5114170;28;20448;-56
2022/04/23 01:19:22;;;;;;;30.05;22.20;;;;;;;8.78;81.19;100390.16;5114177;28;20024;-54
2022/04/23 01:21:47;;;;;;;29.60;23.05;;;;;;;8.73;82.08;100391.06;5114536;28;20050;-54
2022/04/23 01:24:14;;;;;;;30.52;22.65;;;;;;;8.68;82.31;100391.19;5114430;28;20023;-54
2022/04/23 01:26:39;;;;;;;31.48;23.13;;;;;;;8.65;82.27;100389.81;5113627;28;20066;-53
2022/04/23 01:29:05;;;;;;;32.38;23.80;;;;;;;8.62;82.66;100384.09;5095601;28;20015;-53
2022/04/23 01:31:30;;;;;;;30.58;23.70;;;;;;;8.61;82.76;100393.50;5096277;28;20528;-53
2022/04/23 01:33:55;;;;;;;34.28;25.42;;;;;;;8.60;82.54;100392.69;5114413;28;20024;-54
2022/04/23 01:36:21;;;;;;;31.27;22.98;;;;;;;8.57;82.54;100394.13;5114501;28;20024;-54
2022/04/23 01:38:47;;;;;;;33.10;23.80;;;;;;;8.55;82.82;100401.03;5114190;28;20102;-53
2022/04/23 01:41:12;;;;;;;31.95;24.60;;;;;;;8.55;83.35;100395.53;5114213;28;20072;-55
2022/04/23 01:43:38;;;;;;;31.95;23.45;;;;;;;8.53;83.48;100393.06;5114787;28;20443;-57
2022/04/23 01:46:03;;;;;;;31.95;25.02;;;;;;;8.52;83.20;100393.41;5114701;28;20031;-52
2022/04/23 01:48:29;;;;;;;33.13;25.77;;;;;;;8.51;83.69;100398.06;5113749;28;20073;-53
2022/04/23 01:50:55;;;;;;;32.13;24.45;;;;;;;8.49;83.80;100399.50;5113773;28;20100;-53
2022/04/23 01:53:22;;;;;;;30.83;24.13;;;;;;;8.48;83.81;100392.34;5112920;28;20027;-52
2022/04/23 01:55:51;;;;;;;34.67;25.08;;;;;;;8.42;84.22;100391.59;5113654;28;20055;-52
2022/04/23 01:58:16;;;;;;;32.00;26.10;;;;;;;8.43;84.20;100402.34;5113670;28;20366;-53
2022/04/23 02:00:41;;;;;;;34.63;25.90;;;;;;;8.39;84.55;100398.53;5113439;28;20035;-51
2022/04/23 02:03:07;;;;;;;33.53;25.33;;;;;;;8.42;84.16;100399.84;5113679;28;20038;-49
2022/04/23 02:05:32;;;;;;;35.80;27.00;;;;;;;8.39;84.44;100389.47;5113096;28;20030;-53
2022/04/23 02:07:57;;;;;;;33.30;26.55;;;;;;;8.39;85.11;100395.78;5113261;28;20216;-53
2022/04/23 02:10:23;;;;;;;34.78;27.30;;;;;;;8.41;84.76;100395.47;5113161;28;20054;-52
2022/04/23 02:12:48;;;;;;;36.70;27.48;;;;;;;8.39;85.08;100398.53;5113156;28;20042;-56
2022/04/23 02:15:15;;;;;;;34.85;27.50;;;;;;;8.38;85.12;100402.41;5113200;28;20015;-54
2022/04/23 02:17:42;;;;;;;34.38;26.70;;;;;;;8.35;85.10;100403.03;5113103;28;20357;-53
2022/04/23 02:20:18;;;;;;;36.88;27.52;;;;;;;8.25;85.52;100390.22;5113473;28;20180;-54
2022/04/23 02:22:47;;;;;;;36.08;27.58;;;;;;;8.34;85.24;100401.38;5113250;28;20087;-53
2022/04/23 02:25:13;;;;;;;32.28;25.45;;;;;;;8.31;85.68;100401.97;5120048;22;20102;-53
2022/04/23 02:27:46;;;;;;;35.47;26.35;;;;;;;8.29;86.07;100401.47;5031899;28;20035;-51
2022/04/23 02:30:13;;;;;;;34.38;26.50;;;;;;;8.29;85.71;100406.97;5031998;28;20033;-52
2022/04/23 02:32:39;;;;;;;36.53;28.00;;;;;;;8.26;86.12;100400.13;5031621;28;20041;-52
2022/04/23 02:35:05;;;;;;;35.03;26.30;;;;;;;8.25;86.36;100406.75;5030490;28;20022;-53
2022/04/23 02:37:34;;;;;;;35.63;27.23;;;;;;;8.22;86.29;100404.59;5030928;28;20457;-53
2022/04/23 02:39:59;;;;;;;34.15;26.85;;;;;;;8.18;86.65;100398.06;5031609;28;20029;-52
2022/04/23 02:42:24;;;;;;;36.15;27.70;;;;;;;8.16;86.54;100408.56;5031332;28;20070;-53
2022/04/23 02:44:50;;;;;;;36.67;27.65;;;;;;;8.12;86.63;100402.84;5031198;28;20413;-53
2022/04/23 02:47:17;;;;;;;35.25;27.58;;;;;;;8.11;87.04;100405.91;5031044;28;20036;-52
2022/04/23 02:49:42;;;;;;;36.28;27.73;;;;;;;8.08;87.15;100396.28;5031441;28;20104;-52
2022/04/23 02:52:07;;;;;;;36.53;28.67;;;;;;;8.08;87.08;100393.53;5031137;28;20209;-53
2022/04/23 02:54:32;;;;;;;36.17;27.95;;;;;;;8.08;86.97;100406.50;5031433;28;20419;-50
2022/04/23 02:56:58;;;;;;;39.78;30.55;;;;;;;8.06;87.52;100403.22;5031398;28;20025;-52
2022/04/23 02:59:23;;;;;;;35.53;27.67;;;;;;;8.02;87.23;100394.75;5031205;28;20496;-52
2022/04/23 03:01:48;;;;;;;37.03;27.55;;;;;;;8.03;87.48;100401.88;5030996;28;20071;-55
2022/04/23 03:04:15;;;;;;;34.63;27.65;;;;;;;8.04;87.50;100394.44;5031188;28;20383;-53
2022/04/23 03:06:40;;;;;;;37.67;27.80;;;;;;;8.02;87.54;100382.91;5029540;28;20060;-53
2022/04/23 03:09:05;;;;;;;38.05;29.02;;;;;;;8.00;87.79;100383.19;5029971;28;20067;-53
2022/04/23 03:11:32;;;;;;;36.17;28.77;;;;;;;8.00;88.02;100380.44;5030298;28;20026;-51
2022/04/23 03:14:00;;;;;;;37.00;29.33;;;;;;;8.02;88.15;100386.47;5030850;28;20030;-54
2022/04/23 03:16:29;;;;;;;38.20;29.75;;;;;;;8.02;87.89;100383.72;5030275;28;20034;-50
2022/04/23 03:18:54;;;;;;;37.28;29.40;;;;;;;8.01;88.70;100382.09;5030283;28;20439;-52
2022/04/23 03:21:19;;;;;;;36.90;29.77;;;;;;;8.02;88.53;100386.47;5030257;28;20029;-54
2022/04/23 03:23:45;;;;;;;39.17;29.67;;;;;;;8.04;88.15;100387.00;5030793;28;20091;-52
2022/04/23 03:26:10;;;;;;;38.88;29.27;;;;;;;8.05;87.75;100385.88;5044580;28;20045;-52
2022/04/23 03:28:35;;;;;;;38.33;29.00;;;;;;;8.06;87.99;100381.19;5050941;28;20098;-55
2022/04/23 03:31:02;;;;;;;38.60;28.85;;;;;;;8.02;88.10;100372.69;5050397;28;20028;-54
2022/04/23 03:33:27;;;;;;;38.42;29.13;;;;;;;8.03;88.33;100379.03;5050304;28;20029;-54
2022/04/23 03:35:52;;;;;;;40.38;31.10;;;;;;;8.00;88.63;100383.19;5050048;28;20136;-54
2022/04/23 03:38:18;;;;;;;39.15;30.50;;;;;;;8.00;89.11;100377.69;5050799;28;20476;-53
2022/04/23 03:40:43;;;;;;;37.92;30.38;;;;;;;8.03;88.38;100379.84;5032626;28;20052;-51
2022/04/23 03:43:08;;;;;;;37.22;29.42;;;;;;;8.00;88.47;100366.66;5050443;28;20159;-55
2022/04/23 03:45:36;;;;;;;39.83;31.35;;;;;;;7.96;89.31;100377.47;5050615;28;20048;-54
2022/04/23 03:48:02;;;;;;;39.28;31.00;;;;;;;7.98;89.22;100377.19;5049839;28;20104;-53
2022/04/23 03:50:28;;;;;;;40.28;30.17;;;;;;;7.96;89.29;100371.97;5050643;28;20546;-52
2022/04/23 03:52:53;;;;;;;41.03;29.83;;;;;;;7.95;89.42;100370.31;5050320;28;20025;-54
2022/04/23 03:55:19;;;;;;;38.70;29.25;;;;;;;7.95;89.64;100372.28;5050535;28;20374;-54
2022/04/23 03:57:49;;;;;;;42.03;31.70;;;;;;;7.95;89.50;100361.25;5050786;28;20051;-54
2022/04/23 04:00:17;;;;;;;41.20;29.30;;;;;;;7.92;89.36;100365.44;5050902;28;20057;-55
2022/04/23 04:02:44;;;;;;;38.40;28.33;;;;;;;7.92;89.53;100364.59;5049891;28;20124;-53
2022/04/23 04:05:10;;;;;;;38.97;29.92;;;;;;;7.93;89.96;100364.31;5050309;28;20086;-54
2022/04/23 04:07:39;;;;;;;39.25;30.52;;;;;;;7.94;90.17;100356.88;5050146;28;20021;-53
2022/04/23 04:10:05;;;;;;;39.13;29.95;;;;;;;7.94;89.76;100352.16;5050254;28;20065;-53
2022/04/23 04:12:30;;;;;;;42.22;30.08;;;;;;;7.93;89.91;100356.06;5050381;28;20521;-49
2022/04/23 04:14:56;;;;;;;38.13;28.92;;;;;;;7.96;90.17;100362.91;5050635;28;20509;-53
2022/04/23 04:17:21;;;;;;;39.17;28.55;;;;;;;7.96;89.60;100363.69;5051787;28;20136;-53
2022/04/23 04:19:46;;;;;;;40.35;30.42;;;;;;;7.94;89.73;100356.88;5054275;28;20031;-53
2022/04/23 04:22:12;;;;;;;40.78;31.40;;;;;;;7.96;89.85;100349.94;5054535;28;20021;-53
2022/04/23 04:24:37;;;;;;;38.92;30.40;;;;;;;7.93;90.45;100358.81;5036451;28;20120;-53
2022/04/23 04:27:04;;;;;;;39.47;31.23;;;;;;;7.96;89.88;100357.38;5054548;28;20032;-53
2022/04/23 04:29:29;;;;;;;40.55;30.13;;;;;;;7.94;90.46;100359.63;5054792;28;20064;-53
2022/04/23 04:31:55;;;;;;;40.90;32.70;;;;;;;7.96;90.55;100351.88;5053855;28;20045;-51
2022/04/23 04:34:28;;;;;;;40.60;30.90;;;;;;;7.96;90.80;100354.63;5054360;28;20032;-53
2022/04/23 04:37:04;;;;;;;41.70;31.02;;;;;;;7.84;90.08;100340.50;5054314;28;20025;-54
2022/04/23 04:39:30;;;;;;;38.38;29.20;;;;;;;7.92;90.19;100350.81;5054449;28;20092;-53
2022/04/23 04:41:55;;;;;;;39.80;29.25;;;;;;;7.93;90.33;100352.47;5054221;28;20025;-53
2022/04/23 04:44:21;;;;;;;39.50;29.02;;;;;;;7.92;90.68;100356.34;5054098;28;20441;-54
2022/04/23 04:46:46;;;;;;;40.35;29.77;;;;;;;7.91;90.48;100346.44;5054405;28;20025;-51
2022/04/23 04:49:11;;;;;;;41.15;29.35;;;;;;;7.91;90.75;100351.94;5053816;28;20021;-53
2022/04/23 04:51:36;;;;;;;39.42;30.42;;;;;;;7.93;90.07;100360.72;5054134;28;20059;-53
2022/04/23 04:54:05;;;;;;;38.40;29.70;;;;;;;7.92;90.44;100351.66;5054107;28;20025;-50
2022/04/23 04:56:31;;;;;;;41.28;30.02;;;;;;;7.89;90.66;100360.50;5054096;28;20028;-52
2022/04/23 04:58:57;;;;;;;39.83;30.77;;;;;;;7.90;90.45;100359.41;5054109;28;20032;-53
2022/04/23 05:01:22;;;;;;;40.53;30.00;;;;;;;7.93;90.89;100361.56;5054030;28;20492;-54
2022/04/23 05:03:47;;;;;;;41.58;30.65;;;;;;;7.95;90.88;100366.75;5054212;28;20378;-56
2022/04/23 05:06:13;;;;;;;40.55;30.90;;;;;;;7.97;91.07;100367.28;5052751;28;20119;-51
2022/04/23 05:08:38;;;;;;;37.97;29.15;;;;;;;8.03;90.34;100368.84;5052470;28;20531;-53
2022/04/23 05:11:05;;;;;;;42.13;30.98;;;;;;;8.06;90.66;100372.91;5053486;28;20404;-55
2022/04/23 05:13:30;;;;;;;39.03;30.27;;;;;;;8.09;90.15;100375.06;5052869;28;20045;-54
2022/04/23 05:15:56;;;;;;;39.38;30.55;;;;;;;8.15;90.21;100375.81;5053076;28;20111;-54
2022/04/23 05:18:22;;;;;;;40.75;29.67;;;;;;;8.19;89.95;100368.56;5053109;28;20029;-54
2022/04/23 05:20:47;;;;;;;38.42;28.67;;;;;;;8.21;89.74;100367.16;5053597;28;20037;-54
2022/04/23 05:23:13;;;;;;;40.58;30.73;;;;;;;8.28;89.62;100364.00;5035418;28;20441;-54
2022/04/23 05:25:38;;;;;;;38.13;29.40;;;;;;;8.35;89.39;100360.84;5052955;28;20559;-54
2022/04/23 05:28:04;;;;;;;38.80;30.42;;;;;;;8.39;89.31;100375.69;5052495;28;20358;-54
2022/04/23 05:30:29;;;;;;;42.53;30.77;;;;;;;8.44;89.27;100361.78;5053191;28;20033;-54
2022/04/23 05:32:54;;;;;;;38.72;29.50;;;;;;;8.48;89.17;100364.78;5053257;28;20108;-54
2022/04/23 05:35:20;;;;;;;37.60;29.98;;;;;;;8.55;88.59;100371.53;5053328;28;20033;-54
2022/04/23 05:37:45;;;;;;;38.88;29.23;;;;;;;8.60;88.44;100361.56;5053211;28;20028;-53
2022/04/23 05:40:11;;;;;;;38.88;29.55;;;;;;;8.66;88.13;100368.59;5052917;28;20039;-53
2022/04/23 05:42:36;;;;;;;39.25;30.05;;;;;;;8.73;88.17;100371.75;5034743;28;20064;-53
2022/04/23 05:45:01;;;;;;;41.60;30.73;;;;;;;8.77;87.76;100364.53;5053443;28;20079;-54
2022/04/23 05:47:27;;;;;;;39.40;30.65;;;;;;;8.84;87.49;100369.63;5052667;28;20496;-54
2022/04/23 05:49:52;;;;;;;37.80;29.00;;;;;;;8.90;87.52;100371.16;5053035;28;20025;-54
2022/04/23 05:52:17;;;;;;;39.03;28.90;;;;;;;8.94;87.35;100376.88;5052937;28;20059;-54
2022/04/23 05:54:43;;;;;;;40.05;28.83;;;;;;;9.00;87.05;100368.19;5034560;28;20091;-54
2022/04/23 05:57:08;;;;;;;40.20;30.98;;;;;;;9.07;86.79;100373.28;5052912;28;20136;-55
2022/04/23 05:59:33;;;;;;;40.17;31.35;;;;;;;9.12;86.22;100378.72;5052718;28;20053;-53
2022/04/23 06:02:00;;;;;;;39.55;31.67;;;;;;;9.11;86.00;100366.03;5052935;28;20091;-54
2022/04/23 06:04:26;;;;;;;41.00;28.90;;;;;;;9.25;86.00;100367.97;5052363;28;20025;-54
2022/04/23 06:06:52;;;;;;;39.42;31.48;;;;;;;9.28;85.59;100362.66;5052701;28;20441;-54
2022/04/23 06:09:17;;;;;;;36.88;28.88;;;;;;;9.39;85.09;100365.19;5052012;28;20037;-53
2022/04/23 06:11:42;;;;;;;36.75;28.33;;;;;;;9.44;85.32;100362.31;5052376;28;20024;-53
2022/04/23 06:14:08;;;;;;;37.10;28.27;;;;;;;9.52;84.63;100362.41;5052314;28;20362;-55
2022/04/23 06:16:36;;;;;;;40.67;31.33;;;;;;;9.59;84.09;100367.47;5052003;28;20576;-56
2022/04/23 06:19:01;;;;;;;36.88;30.23;;;;;;;9.64;83.70;100358.25;5052509;28;20025;-54
2022/04/23 06:21:26;;;;;;;37.85;28.73;;;;;;;9.67;83.33;100357.63;5052605;28;20110;-54
2022/04/23 06:23:51;;;;;;;38.60;29.55;;;;;;;9.72;83.55;100360.31;5052961;28;20551;-54
2022/04/23 06:26:17;;;;;;;39.50;30.38;;;;;;;9.75;82.93;100359.66;5051868;28;20052;-58
2022/04/23 06:28:42;;;;;;;37.78;29.10;;;;;;;9.83;83.12;100356.13;5034326;28;20036;-62
2022/04/23 06:31:07;;;;;;;37.78;28.23;;;;;;;9.90;82.86;100352.16;5052779;28;20112;-56
2022/04/23 06:33:33;;;;;;;37.78;29.77;;;;;;;9.96;82.22;100350.88;5052563;28;20028;-55
2022/04/23 06:35:59;;;;;;;37.65;29.90;;;;;;;10.04;81.65;100360.38;5052394;28;20111;-55
2022/04/23 06:38:24;;;;;;;37.40;29.08;;;;;;;10.08;81.70;100353.06;5052108;28;20067;-55
2022/04/23 06:40:49;;;;;;;38.15;29.70;;;;;;;10.17;80.84;100355.91;5052020;28;20020;-55
2022/04/23 06:43:14;;;;;;;36.97;29.52;;;;;;;10.22;80.63;100355.75;5052556;28;20069;-55
2022/04/23 06:45:40;;;;;;;35.88;28.98;;;;;;;10.31;80.32;100359.38;5052626;28;20426;-55
2022/04/23 06:48:05;;;;;;;36.80;27.10;;;;;;;10.38;79.94;100358.97;5052095;28;20025;-54
2022/04/23 06:50:35;;;;;;;37.15;28.55;;;;;;;10.42;79.28;100366.31;5052070;28;20403;-55
2022/04/23 06:53:01;;;;;;;36.92;28.75;;;;;;;10.49;79.08;100357.56;5052342;28;20431;-55
2022/04/23 06:55:26;;;;;;;35.47;27.67;;;;;;;10.57;78.27;100345.75;5034192;28;20464;-55
2022/04/23 06:57:51;;;;;;;35.30;27.63;;;;;;;10.61;78.69;100351.44;5051911;28;20101;-54
2022/04/23 07:00:17;;;;;;;35.25;28.00;;;;;;;10.73;78.23;100354.44;5051941;28;20044;-55
2022/04/23 07:02:42;;;;;;;35.42;27.75;;;;;;;10.83;77.73;100346.97;5052030;28;20024;-55
2022/04/23 07:05:08;;;;;;;36.70;29.02;;;;;;;10.84;77.16;100346.66;5033874;28;20084;-55
2022/04/23 07:07:33;;;;;;;36.28;28.90;;;;;;;10.90;77.08;100345.38;5052036;28;20033;-54
2022/04/23 07:09:59;;;;;;;36.55;28.25;;;;;;;10.99;76.53;100342.63;5051950;28;20437;-53
2022/04/23 07:12:24;;;;;;;35.78;27.58;;;;;;;11.08;75.96;100340.69;5051633;28;20392;-53
2022/04/23 07:14:50;;;;;;;36.28;28.55;;;;;;;11.15;75.44;100343.00;5050400;28;20021;-52
2022/04/23 07:17:15;;;;;;;36.63;28.08;;;;;;;11.21;75.17;100340.91;5051464;28;20056;-53
2022/04/23 07:19:41;;;;;;;36.30;28.10;;;;;;;11.30;75.42;100344.50;5051536;28;20040;-53
2022/04/23 07:22:07;;;;;;;35.45;28.38;;;;;;;11.43;74.96;100345.50;5051137;28;20040;-51
2022/04/23 07:24:33;;;;;;;34.53;27.02;;;;;;;11.52;74.18;100343.53;5051287;28;20025;-52
2022/04/23 07:26:59;;;;;;;35.60;27.83;;;;;;;11.59;74.52;100333.91;5051477;28;20044;-53
2022/04/23 07:29:24;;;;;;;34.42;25.92;;;;;;;11.71;74.37;100334.09;5052011;28;20039;-50
2022/04/23 07:31:50;;;;;;;34.08;27.30;;;;;;;11.83;73.38;100333.44;5051636;28;20036;-53
2022/04/23 07:39:44;;;;;;;35.85;27.60;;;;;;;12.13;71.74;100334.41;5050776;28;20095;-53
2022/04/23 07:42:10;;;;;;;34.50;27.60;;;;;;;12.15;70.33;100331.31;5051963;28;20040;-55
2022/04/23 07:44:36;;;;;;;33.80;26.85;;;;;;;12.20;70.11;100330.31;5051774;28;20112;-52
2022/04/23 07:47:04;;;;;;;34.65;27.30;;;;;;;12.27;70.04;100336.16;5051576;28;20389;-53
2022/04/23 07:49:30;;;;;;;35.28;26.80;;;;;;;12.33;69.24;100327.34;5051443;28;20025;-54
2022/04/23 07:51:55;;;;;;;33.25;26.27;;;;;;;12.40;69.99;100329.59;5051791;28;20108;-53
2022/04/23 07:54:20;;;;;;;32.88;26.15;;;;;;;12.45;68.84;100325.84;5055238;28;20036;-50
2022/04/23 07:56:46;;;;;;;34.38;27.55;;;;;;;12.58;68.99;100329.53;5054938;28;20025;-54
2022/04/23 07:59:11;;;;;;;34.03;27.55;;;;;;;12.64;68.43;100322.66;5054831;28;20033;-55
2022/04/23 08:01:37;;;;;;;32.95;26.23;;;;;;;12.68;67.90;100323.63;5055288;28;20432;-53
2022/04/23 08:04:03;;;;;;;35.28;28.40;;;;;;;12.66;67.54;100319.56;5055031;28;20028;-54
2022/04/23 08:06:29;;;;;;;34.55;27.63;;;;;;;12.68;67.85;100322.78;5037516;28;20033;-53
2022/04/23 08:08:54;;;;;;;33.53;26.98;;;;;;;12.76;67.20;100319.16;5037164;28;20021;-52
2022/04/23 08:11:22;;;;;;;35.03;26.92;;;;;;;12.86;67.65;100307.69;5055111;28;20033;-53
2022/04/23 08:13:49;;;;;;;34.45;27.30;;;;;;;13.00;66.67;100309.41;5055618;28;20039;-54
2022/04/23 08:16:15;;;;;;;33.55;26.38;;;;;;;13.08;66.44;100306.56;5055234;28;20029;-54
2022/04/23 08:18:40;;;;;;;32.58;26.00;;;;;;;13.14;65.23;100309.16;5054966;28;20366;-54
2022/04/23 08:21:05;;;;;;;32.08;24.88;;;;;;;13.21;64.49;100309.44;5054893;28;20091;-55
2022/04/23 08:23:33;;;;;;;34.08;26.63;;;;;;;13.19;64.73;100300.63;5054774;28;20106;-53
2022/04/23 08:26:00;;;;;;;33.33;24.92;;;;;;;13.26;65.13;100304.50;5054665;28;20049;-53
2022/04/23 08:31:11;;;;;;;34.47;25.67;;;;;;;13.46;63.61;100304.88;5053187;28;20416;-56
2022/04/23 08:36:22;;;;;;;33.67;26.27;;;;;;;13.71;62.53;100288.31;5053038;28;20048;-54
2022/04/23 08:38:47;;;;;;;33.33;25.33;;;;;;;13.87;62.92;100289.31;5052559;28;20025;-53
2022/04/23 08:41:13;;;;;;;34.53;26.17;;;;;;;14.04;62.13;100293.06;5052322;28;20061;-54
2022/04/23 08:43:41;;;;;;;34.63;27.17;;;;;;;14.24;61.79;100288.59;5052341;28;20115;-52
2022/04/23 08:46:07;;;;;;;34.15;26.02;;;;;;;14.39;60.97;100294.66;5052051;28;20600;-54
2022/04/23 08:48:42;;;;;;;32.05;25.45;;;;;;;14.40;60.26;100290.72;5052124;28;20029;-53
2022/04/23 08:51:13;;;;;;;37.10;25.52;;;;;;;14.31;60.09;100307.50;5051218;28;20083;-50
2022/04/23 08:53:40;;;;;;;33.10;24.95;;;;;;;14.27;59.92;100295.44;5050490;28;20041;-54
2022/04/23 08:56:06;;;;;;;32.17;24.27;;;;;;;14.35;59.73;100300.09;5052220;28;20025;-54
2022/04/23 08:58:32;;;;;;;31.02;24.10;;;;;;;14.49;59.31;100303.38;5052224;28;20087;-52
2022/04/23 09:00:57;;;;;;;33.13;25.42;;;;;;;14.48;58.99;100303.72;5052046;28;20494;-51
2022/04/23 09:03:22;;;;;;;33.58;24.50;;;;;;;14.50;59.54;100313.34;5051979;28;20036;-53
2022/04/23 09:05:54;;;;;;;33.08;26.23;;;;;;;14.48;59.36;100314.84;5051467;28;20025;-54
2022/04/23 09:08:19;;;;;;;33.53;25.67;;;;;;;14.51;59.11;100303.84;5051747;28;20079;-53
2022/04/23 09:10:54;;;;;;;32.67;26.33;;;;;;;14.73;59.34;100310.16;5051760;28;20044;-55
2022/04/23 09:13:32;;;;;;;34.08;27.42;;;;;;;14.87;58.88;100301.44;5051618;28;20481;-54
2022/04/23 09:24:42;;;;;;;34.67;27.08;;;;;;;15.35;57.88;100304.50;5052124;28;20059;-54
2022/04/23 09:27:07;;;;;;;33.03;27.30;;;;;;;15.55;56.26;100308.28;5051578;28;20489;-55
2022/04/23 09:29:33;;;;;;;35.00;27.60;;;;;;;15.73;55.59;100319.13;5052189;28;20029;-53
2022/04/23 09:32:14;;;;;;;35.65;28.50;;;;;;;15.71;57.00;100311.13;5051303;28;20120;-52
2022/04/23 09:34:40;;;;;;;34.88;26.65;;;;;;;15.69;55.76;100316.22;5051684;28;20436;-55
2022/04/23 09:37:05;;;;;;;34.08;28.45;;;;;;;15.53;56.26;100307.00;5051047;28;20044;-55
2022/04/23 09:39:35;;;;;;;34.72;28.08;;;;;;;15.46;56.40;100312.38;5050349;28;20039;-54
2022/04/23 09:42:14;;;;;;;34.55;26.02;;;;;;;15.48;56.49;100313.63;5051005;28;20025;-55
2022/04/23 09:44:40;;;;;;;35.15;26.73;;;;;;;15.56;55.88;100320.25;5050948;28;20152;-54
2022/04/23 09:47:06;;;;;;;34.78;27.88;;;;;;;15.72;55.30;100306.38;5051417;28;20033;-54
2022/04/23 09:49:31;;;;;;;33.55;27.20;;;;;;;15.92;55.22;100300.97;5051640;28;20114;-54
2022/04/23 09:52:07;;;;;;;33.92;26.67;;;;;;;16.03;55.02;100297.31;5049271;28;20589;-54
2022/04/23 09:54:33;;;;;;;34.20;27.83;;;;;;;16.04;54.57;100307.31;5051261;28;20043;-55
2022/04/23 09:56:59;;;;;;;36.53;28.02;;;;;;;15.87;54.52;100311.22;5051408;28;20041;-57
2022/04/23 09:59:25;;;;;;;34.80;28.50;;;;;;;15.67;55.15;100310.22;5051652;28;20013;-54
2022/04/23 10:01:50;;;;;;;34.28;27.33;;;;;;;15.52;55.67;100300.63;5050568;28;20029;-55
2022/04/23 10:04:25;;;;;;;35.42;28.73;;;;;;;15.47;55.84;100306.44;5051204;28;20040;-56
2022/04/23 10:06:51;;;;;;;34.40;28.02;;;;;;;15.53;56.07;100310.63;5051397;28;20045;-57
2022/04/23 10:09:24;;;;;;;33.63;27.30;;;;;;;15.66;55.65;100296.63;5051399;28;20403;-54
2022/04/23 10:12:00;;;;;;;35.25;29.40;;;;;;;15.52;55.50;100302.59;5051445;28;20432;-55
2022/04/23 10:14:28;;;;;;;34.30;28.45;;;;;;;15.79;55.55;100302.94;5051240;28;20029;-55
2022/04/23 10:16:54;;;;;;;35.28;27.65;;;;;;;16.00;54.16;100295.22;5033769;28;20037;-54
2022/04/23 10:19:20;;;;;;;34.50;27.92;;;;;;;16.12;54.04;100294.34;5033830;28;20064;-53
2022/04/23 10:22:14;;;;;;;35.42;28.23;;;;;;;16.07;54.89;100291.81;5050948;28;20056;-54
2022/04/23 10:24:52;;;;;;;35.80;28.73;;;;;;;16.04;54.11;100289.72;5050796;28;20043;-52
2022/04/23 10:27:18;;;;;;;35.55;29.40;;;;;;;15.90;53.70;100293.78;5050067;28;20036;-52
2022/04/23 10:29:45;;;;;;;35.25;29.17;;;;;;;16.00;54.14;100286.84;5050538;28;20028;-54
2022/04/23 10:32:10;;;;;;;35.55;28.42;;;;;;;16.19;53.29;100275.00;5050512;28;20385;-54
2022/04/23 10:34:36;;;;;;;34.95;29.63;;;;;;;16.36;53.49;100278.63;5050732;28;20111;-56
2022/04/23 10:37:20;;;;;;;34.15;28.67;;;;;;;16.59;52.99;100267.63;5050998;28;20093;-53
2022/04/23 10:40:05;;;;;;;34.50;28.42;;;;;;;16.77;52.26;100270.03;5050541;28;20029;-54
2022/04/23 10:42:32;;;;;;;34.95;28.20;;;;;;;16.92;52.60;100280.38;5032160;28;20036;-52
2022/04/23 10:45:03;;;;;;;35.92;29.13;;;;;;;17.04;51.35;100271.09;5049345;28;20090;-55
2022/04/23 10:47:34;;;;;;;34.80;29.00;;;;;;;17.06;51.27;100270.72;5050122;28;20033;-54
2022/04/23 10:50:23;;;;;;;36.10;29.55;;;;;;;17.02;51.90;100273.44;5050800;28;20039;-54
2022/04/23 10:52:50;;;;;;;34.38;28.70;;;;;;;17.04;51.44;100270.28;5030628;28;20068;-54
2022/04/23 10:55:16;;;;;;;34.70;28.63;;;;;;;17.00;50.69;100273.78;5032497;28;20041;-53
2022/04/23 10:57:50;;;;;;;35.85;29.08;;;;;;;17.10;51.51;100271.59;5050904;28;20044;-55
2022/04/23 11:00:17;;;;;;;36.03;29.65;;;;;;;17.21;50.43;100264.28;5050454;28;20032;-54
2022/04/23 11:02:54;;;;;;;34.40;29.40;;;;;;;17.35;50.39;100272.16;5050049;28;20078;-55
2022/04/23 11:14:44;;;;;;;37.05;31.40;;;;;;;18.04;49.70;100259.56;5048924;28;20063;-55
2022/04/23 11:17:21;;;;;;;37.42;29.38;;;;;;;18.02;48.69;100242.34;5049652;28;20032;-53
2022/04/23 11:19:54;;;;;;;35.85;28.98;;;;;;;17.91;48.45;100251.31;5049471;28;20429;-54
2022/04/23 11:22:21;;;;;;;36.42;29.80;;;;;;;17.99;48.54;100257.06;5049435;28;20481;-55
2022/04/23 11:24:51;;;;;;;35.25;30.17;;;;;;;17.98;48.54;100252.66;5032382;28;20042;-55
2022/04/23 11:27:23;;;;;;;34.22;27.95;;;;;;;18.05;47.84;100249.97;5056565;28;20552;-55
2022/04/23 11:29:52;;;;;;;35.35;28.55;;;;;;;18.09;48.19;100254.47;5054798;28;20036;-55
2022/04/23 11:32:28;;;;;;;34.20;27.20;;;;;;;17.97;48.67;100248.22;5049829;28;20107;-54
2022/04/23 11:35:04;;;;;;;35.78;30.02;;;;;;;17.90;48.66;100246.91;5063910;28;20029;-55
2022/04/23 11:37:33;;;;;;;34.25;30.05;;;;;;;17.73;48.13;100252.97;5057265;28;20104;-54
2022/04/23 11:40:10;;;;;;;34.67;29.42;;;;;;;17.92;48.90;100243.72;5059115;28;20029;-55
2022/04/23 11:42:43;;;;;;;35.83;30.30;;;;;;;18.08;48.58;100244.47;5042193;28;20060;-55